sensor_id;sensor_type;location;lat;lon;timestamp;P1;durP1;ratioP1;P2;durP2;ratioP2
21987;SDS011;11158;53.404;-1.510;2023-05-10T00:00:09;8.15;;;2.50;;
21987;SDS011;11158;53.404;-1.510;2023-05-10T00:02:53;14.85;;;3.95;;
21987;SDS011;11158;53.404;-1.510;2023-05-10T00:05:37;11.10;;;2.92;;
21987;SDS011;11158;53.404;-1.510;2023-05-10T00:08:22;7.82;;;2.25;;
21987;SDS011;11158;53.404;-1.510;2023-05-10T00:11:06;11.98;;;2.42;;
21987;SDS011;11158;53.404;-1.510;2023-05-10T00:13:50;9.63;;;2.20;;
21987;SDS011;11158;53.404;-1.510;2023-05-10T00:16:35;3.45;;;1.40;;
21987;SDS011;11158;53.404;-1.510;2023-05-10T00:19:19;7.38;;;1.92;;
21987;SDS011;11158;53.404;-1.510;2023-05-10T00:22:03;6.20;;;1.85;;
21987;SDS011;11158;53.404;-1.510;2023-05-10T00:24:47;5.35;;;1.92;;
21987;SDS011;11158;53.404;-1.510;2023-05-10T00:27:31;7.03;;;2.03;;
21987;SDS011;11158;53.404;-1.510;2023-05-10T00:30:15;7.25;;;2.05;;
21987;SDS011;11158;53.404;-1.510;2023-05-10T00:32:59;6.95;;;1.80;;
21987;SDS011;11158;53.404;-1.510;2023-05-10T00:35:44;7.75;;;2.17;;
21987;SDS011;11158;53.404;-1.510;2023-05-10T00:38:28;4.93;;;1.95;;
21987;SDS011;11158;53.404;-1.510;2023-05-10T00:41:13;8.13;;;2.40;;
21987;SDS011;11158;53.404;-1.510;2023-05-10T00:43:57;9.50;;;2.30;;
21987;SDS011;11158;53.404;-1.510;2023-05-10T00:46:42;8.32;;;2.22;;
21987;SDS011;11158;53.404;-1.510;2023-05-10T00:49:26;7.80;;;2.10;;
21987;SDS011;11158;53.404;-1.510;2023-05-10T00:52:12;7.40;;;2.28;;
21987;SDS011;11158;53.404;-1.510;2023-05-10T00:54:57;9.57;;;2.10;;
21987;SDS011;11158;53.404;-1.510;2023-05-10T00:57:41;8.75;;;2.70;;
21987;SDS011;11158;53.404;-1.510;2023-05-10T01:00:33;10.52;;;3.42;;
21987;SDS011;11158;53.404;-1.510;2023-05-10T01:03:25;12.02;;;3.55;;
21987;SDS011;11158;53.404;-1.510;2023-05-10T01:06:10;11.20;;;2.88;;
21987;SDS011;11158;53.404;-1.510;2023-05-10T01:08:55;13.50;;;3.15;;
21987;SDS011;11158;53.404;-1.510;2023-05-10T01:11:39;13.65;;;2.78;;
21987;SDS011;11158;53.404;-1.510;2023-05-10T01:14:24;5.95;;;3.10;;
21987;SDS011;11158;53.404;-1.510;2023-05-10T01:17:09;9.93;;;2.58;;
21987;SDS011;11158;53.404;-1.510;2023-05-10T01:19:55;8.82;;;2.55;;
21987;SDS011;11158;53.404;-1.510;2023-05-10T01:44:34;8.98;;;3.20;;
21987;SDS011;11158;53.404;-1.510;2023-05-10T01:50:09;9.68;;;2.58;;
21987;SDS011;11158;53.404;-1.510;2023-05-10T01:52:59;8.13;;;2.35;;
21987;SDS011;11158;53.404;-1.510;2023-05-10T01:55:46;14.48;;;4.15;;
21987;SDS011;11158;53.404;-1.510;2023-05-10T01:58:32;14.65;;;4.57;;
21987;SDS011;11158;53.404;-1.510;2023-05-10T02:01:20;16.85;;;4.88;;
21987;SDS011;11158;53.404;-1.510;2023-05-10T02:04:06;7.60;;;2.72;;
21987;SDS011;11158;53.404;-1.510;2023-05-10T02:06:52;17.20;;;4.05;;
21987;SDS011;11158;53.404;-1.510;2023-05-10T02:09:37;11.77;;;3.30;;
21987;SDS011;11158;53.404;-1.510;2023-05-10T02:12:22;12.70;;;2.78;;
21987;SDS011;11158;53.404;-1.510;2023-05-10T02:15:08;11.63;;;2.60;;
21987;SDS011;11158;53.404;-1.510;2023-05-10T02:17:54;8.85;;;2.80;;
21987;SDS011;11158;53.404;-1.510;2023-05-10T02:20:41;11.15;;;2.97;;
21987;SDS011;11158;53.404;-1.510;2023-05-10T02:23:26;15.52;;;4.00;;
21987;SDS011;11158;53.404;-1.510;2023-05-10T02:26:13;8.95;;;2.63;;
21987;SDS011;11158;53.404;-1.510;2023-05-10T02:28:58;11.90;;;3.15;;
21987;SDS011;11158;53.404;-1.510;2023-05-10T02:31:43;10.68;;;2.50;;
21987;SDS011;11158;53.404;-1.510;2023-05-10T02:34:33;9.95;;;2.78;;
21987;SDS011;11158;53.404;-1.510;2023-05-10T02:37:21;9.60;;;2.55;;
21987;SDS011;11158;53.404;-1.510;2023-05-10T02:40:06;11.25;;;2.97;;
21987;SDS011;11158;53.404;-1.510;2023-05-10T02:42:52;7.43;;;2.80;;
21987;SDS011;11158;53.404;-1.510;2023-05-10T02:45:40;11.07;;;3.20;;
21987;SDS011;11158;53.404;-1.510;2023-05-10T02:48:25;7.65;;;3.17;;
21987;SDS011;11158;53.404;-1.510;2023-05-10T02:51:09;8.82;;;2.75;;
21987;SDS011;11158;53.404;-1.510;2023-05-10T02:53:57;5.20;;;2.83;;
21987;SDS011;11158;53.404;-1.510;2023-05-10T02:56:50;8.25;;;3.17;;
21987;SDS011;11158;53.404;-1.510;2023-05-10T02:59:37;8.07;;;2.90;;
21987;SDS011;11158;53.404;-1.510;2023-05-10T03:02:21;7.60;;;2.75;;
21987;SDS011;11158;53.404;-1.510;2023-05-10T03:05:05;11.73;;;3.08;;
21987;SDS011;11158;53.404;-1.510;2023-05-10T03:07:50;9.35;;;2.85;;
21987;SDS011;11158;53.404;-1.510;2023-05-10T03:10:38;10.93;;;2.53;;
21987;SDS011;11158;53.404;-1.510;2023-05-10T03:16:25;7.80;;;3.05;;
21987;SDS011;11158;53.404;-1.510;2023-05-10T03:22:31;8.98;;;2.38;;
21987;SDS011;11158;53.404;-1.510;2023-05-10T03:25:20;6.38;;;2.80;;
21987;SDS011;11158;53.404;-1.510;2023-05-10T03:28:07;13.32;;;3.30;;
21987;SDS011;11158;53.404;-1.510;2023-05-10T03:30:52;6.68;;;2.88;;
21987;SDS011;11158;53.404;-1.510;2023-05-10T03:33:45;8.45;;;2.50;;
21987;SDS011;11158;53.404;-1.510;2023-05-10T03:36:36;4.93;;;2.60;;
21987;SDS011;11158;53.404;-1.510;2023-05-10T03:39:20;7.75;;;2.90;;
21987;SDS011;11158;53.404;-1.510;2023-05-10T03:42:05;9.13;;;3.15;;
21987;SDS011;11158;53.404;-1.510;2023-05-10T03:44:49;10.43;;;3.00;;
21987;SDS011;11158;53.404;-1.510;2023-05-10T03:47:33;8.60;;;2.92;;
21987;SDS011;11158;53.404;-1.510;2023-05-10T03:50:17;8.75;;;2.97;;
21987;SDS011;11158;53.404;-1.510;2023-05-10T03:53:02;7.32;;;2.88;;
21987;SDS011;11158;53.404;-1.510;2023-05-10T03:55:46;10.65;;;3.50;;
21987;SDS011;11158;53.404;-1.510;2023-05-10T03:58:30;5.45;;;3.10;;
21987;SDS011;11158;53.404;-1.510;2023-05-10T04:01:14;9.98;;;2.97;;
21987;SDS011;11158;53.404;-1.510;2023-05-10T04:03:58;7.57;;;2.83;;
21987;SDS011;11158;53.404;-1.510;2023-05-10T04:06:42;7.57;;;2.58;;
21987;SDS011;11158;53.404;-1.510;2023-05-10T04:09:26;9.30;;;3.30;;
21987;SDS011;11158;53.404;-1.510;2023-05-10T04:12:10;5.72;;;3.10;;
21987;SDS011;11158;53.404;-1.510;2023-05-10T04:14:54;6.82;;;2.63;;
21987;SDS011;11158;53.404;-1.510;2023-05-10T04:17:39;8.25;;;3.10;;
21987;SDS011;11158;53.404;-1.510;2023-05-10T04:20:23;6.28;;;2.95;;
21987;SDS011;11158;53.404;-1.510;2023-05-10T04:23:07;9.07;;;3.42;;
21987;SDS011;11158;53.404;-1.510;2023-05-10T04:25:51;7.22;;;3.38;;
21987;SDS011;11158;53.404;-1.510;2023-05-10T04:28:35;10.02;;;3.28;;
21987;SDS011;11158;53.404;-1.510;2023-05-10T04:31:19;10.20;;;4.03;;
21987;SDS011;11158;53.404;-1.510;2023-05-10T04:34:03;11.15;;;3.63;;
21987;SDS011;11158;53.404;-1.510;2023-05-10T04:36:48;10.50;;;3.42;;
21987;SDS011;11158;53.404;-1.510;2023-05-10T04:39:32;9.48;;;4.22;;
21987;SDS011;11158;53.404;-1.510;2023-05-10T04:42:16;9.27;;;4.40;;
21987;SDS011;11158;53.404;-1.510;2023-05-10T04:45:00;8.68;;;4.88;;
21987;SDS011;11158;53.404;-1.510;2023-05-10T04:47:44;10.45;;;5.28;;
21987;SDS011;11158;53.404;-1.510;2023-05-10T04:50:29;12.07;;;5.63;;
21987;SDS011;11158;53.404;-1.510;2023-05-10T04:53:13;10.02;;;5.35;;
21987;SDS011;11158;53.404;-1.510;2023-05-10T04:55:57;8.68;;;4.65;;
21987;SDS011;11158;53.404;-1.510;2023-05-10T04:58:41;16.10;;;6.45;;
21987;SDS011;11158;53.404;-1.510;2023-05-10T05:01:25;10.20;;;5.00;;
21987;SDS011;11158;53.404;-1.510;2023-05-10T05:04:16;9.88;;;4.97;;
21987;SDS011;11158;53.404;-1.510;2023-05-10T05:07:00;11.30;;;5.25;;
21987;SDS011;11158;53.404;-1.510;2023-05-10T05:09:44;11.18;;;5.13;;
21987;SDS011;11158;53.404;-1.510;2023-05-10T05:12:29;12.57;;;5.03;;
21987;SDS011;11158;53.404;-1.510;2023-05-10T05:15:13;9.27;;;4.10;;
21987;SDS011;11158;53.404;-1.510;2023-05-10T05:17:58;9.73;;;4.40;;
21987;SDS011;11158;53.404;-1.510;2023-05-10T05:20:43;7.15;;;4.38;;
21987;SDS011;11158;53.404;-1.510;2023-05-10T05:23:27;9.50;;;4.47;;
21987;SDS011;11158;53.404;-1.510;2023-05-10T05:26:11;9.43;;;4.30;;
21987;SDS011;11158;53.404;-1.510;2023-05-10T05:28:55;11.60;;;4.32;;
21987;SDS011;11158;53.404;-1.510;2023-05-10T05:31:39;9.98;;;4.80;;
21987;SDS011;11158;53.404;-1.510;2023-05-10T05:34:23;7.82;;;4.07;;
21987;SDS011;11158;53.404;-1.510;2023-05-10T05:37:07;8.23;;;3.88;;
21987;SDS011;11158;53.404;-1.510;2023-05-10T05:39:56;9.10;;;3.78;;
21987;SDS011;11158;53.404;-1.510;2023-05-10T05:42:40;11.45;;;3.92;;
21987;SDS011;11158;53.404;-1.510;2023-05-10T05:45:25;7.45;;;4.13;;
21987;SDS011;11158;53.404;-1.510;2023-05-10T05:48:09;9.55;;;4.03;;
21987;SDS011;11158;53.404;-1.510;2023-05-10T05:50:54;7.75;;;3.92;;
21987;SDS011;11158;53.404;-1.510;2023-05-10T05:53:39;9.32;;;4.32;;
21987;SDS011;11158;53.404;-1.510;2023-05-10T05:56:23;10.00;;;4.18;;
21987;SDS011;11158;53.404;-1.510;2023-05-10T05:59:07;12.65;;;4.10;;
21987;SDS011;11158;53.404;-1.510;2023-05-10T06:01:52;8.48;;;4.00;;
21987;SDS011;11158;53.404;-1.510;2023-05-10T06:04:36;8.77;;;4.10;;
21987;SDS011;11158;53.404;-1.510;2023-05-10T06:07:20;6.65;;;3.22;;
21987;SDS011;11158;53.404;-1.510;2023-05-10T06:10:05;5.95;;;3.75;;
21987;SDS011;11158;53.404;-1.510;2023-05-10T06:12:50;9.13;;;3.60;;
21987;SDS011;11158;53.404;-1.510;2023-05-10T06:15:34;7.38;;;3.72;;
21987;SDS011;11158;53.404;-1.510;2023-05-10T06:18:18;8.13;;;4.15;;
21987;SDS011;11158;53.404;-1.510;2023-05-10T06:21:02;7.18;;;3.75;;
21987;SDS011;11158;53.404;-1.510;2023-05-10T06:23:46;6.72;;;3.35;;
21987;SDS011;11158;53.404;-1.510;2023-05-10T06:26:30;8.45;;;3.55;;
21987;SDS011;11158;53.404;-1.510;2023-05-10T06:29:14;9.20;;;3.17;;
21987;SDS011;11158;53.404;-1.510;2023-05-10T06:31:58;9.00;;;3.58;;
21987;SDS011;11158;53.404;-1.510;2023-05-10T06:34:42;6.82;;;3.45;;
21987;SDS011;11158;53.404;-1.510;2023-05-10T06:37:28;5.60;;;3.28;;
21987;SDS011;11158;53.404;-1.510;2023-05-10T06:40:12;6.55;;;3.08;;
21987;SDS011;11158;53.404;-1.510;2023-05-10T06:42:56;7.97;;;3.33;;
21987;SDS011;11158;53.404;-1.510;2023-05-10T06:45:40;10.57;;;3.60;;
21987;SDS011;11158;53.404;-1.510;2023-05-10T06:48:24;10.05;;;3.63;;
21987;SDS011;11158;53.404;-1.510;2023-05-10T06:51:08;8.95;;;3.35;;
21987;SDS011;11158;53.404;-1.510;2023-05-10T06:53:52;6.40;;;2.67;;
21987;SDS011;11158;53.404;-1.510;2023-05-10T06:56:36;4.88;;;2.08;;
21987;SDS011;11158;53.404;-1.510;2023-05-10T06:59:20;6.75;;;2.42;;
21987;SDS011;11158;53.404;-1.510;2023-05-10T07:02:05;6.50;;;2.33;;
21987;SDS011;11158;53.404;-1.510;2023-05-10T07:04:49;6.70;;;2.25;;
21987;SDS011;11158;53.404;-1.510;2023-05-10T07:07:35;4.93;;;2.10;;
21987;SDS011;11158;53.404;-1.510;2023-05-10T07:10:20;6.18;;;2.80;;
21987;SDS011;11158;53.404;-1.510;2023-05-10T07:13:04;8.57;;;2.83;;
21987;SDS011;11158;53.404;-1.510;2023-05-10T07:15:48;7.95;;;2.45;;
21987;SDS011;11158;53.404;-1.510;2023-05-10T07:18:32;6.57;;;2.55;;
21987;SDS011;11158;53.404;-1.510;2023-05-10T07:21:16;6.65;;;2.70;;
21987;SDS011;11158;53.404;-1.510;2023-05-10T07:24:00;5.85;;;2.28;;
21987;SDS011;11158;53.404;-1.510;2023-05-10T07:26:44;8.10;;;2.63;;
21987;SDS011;11158;53.404;-1.510;2023-05-10T07:29:28;8.35;;;2.30;;
21987;SDS011;11158;53.404;-1.510;2023-05-10T07:32:13;5.90;;;2.53;;
21987;SDS011;11158;53.404;-1.510;2023-05-10T07:34:57;5.75;;;2.22;;
21987;SDS011;11158;53.404;-1.510;2023-05-10T07:37:41;7.38;;;2.30;;
21987;SDS011;11158;53.404;-1.510;2023-05-10T07:40:25;4.43;;;1.92;;
21987;SDS011;11158;53.404;-1.510;2023-05-10T07:43:09;6.55;;;2.00;;
21987;SDS011;11158;53.404;-1.510;2023-05-10T07:45:53;5.07;;;2.05;;
21987;SDS011;11158;53.404;-1.510;2023-05-10T07:48:37;4.40;;;1.83;;
21987;SDS011;11158;53.404;-1.510;2023-05-10T07:51:21;3.90;;;1.70;;
21987;SDS011;11158;53.404;-1.510;2023-05-10T07:54:06;5.00;;;1.50;;
21987;SDS011;11158;53.404;-1.510;2023-05-10T07:56:50;4.07;;;1.42;;
21987;SDS011;11158;53.404;-1.510;2023-05-10T07:59:34;5.90;;;1.50;;
21987;SDS011;11158;53.404;-1.510;2023-05-10T08:02:18;4.72;;;1.75;;
21987;SDS011;11158;53.404;-1.510;2023-05-10T08:05:03;4.22;;;1.60;;
21987;SDS011;11158;53.404;-1.510;2023-05-10T08:07:49;6.20;;;2.45;;
21987;SDS011;11158;53.404;-1.510;2023-05-10T08:10:33;3.75;;;2.03;;
21987;SDS011;11158;53.404;-1.510;2023-05-10T08:13:17;6.80;;;2.38;;
21987;SDS011;11158;53.404;-1.510;2023-05-10T08:16:01;3.75;;;1.80;;
21987;SDS011;11158;53.404;-1.510;2023-05-10T08:18:46;4.68;;;1.70;;
21987;SDS011;11158;53.404;-1.510;2023-05-10T08:21:30;6.43;;;2.35;;
21987;SDS011;11158;53.404;-1.510;2023-05-10T08:24:14;6.97;;;2.30;;
21987;SDS011;11158;53.404;-1.510;2023-05-10T08:26:59;6.20;;;2.00;;
21987;SDS011;11158;53.404;-1.510;2023-05-10T08:29:43;6.30;;;2.00;;
21987;SDS011;11158;53.404;-1.510;2023-05-10T08:32:27;7.70;;;2.03;;
21987;SDS011;11158;53.404;-1.510;2023-05-10T08:35:11;4.72;;;1.60;;
21987;SDS011;11158;53.404;-1.510;2023-05-10T08:37:56;8.10;;;2.05;;
21987;SDS011;11158;53.404;-1.510;2023-05-10T08:40:43;7.18;;;1.83;;
21987;SDS011;11158;53.404;-1.510;2023-05-10T08:43:29;12.15;;;2.17;;
21987;SDS011;11158;53.404;-1.510;2023-05-10T08:46:17;7.32;;;1.60;;
21987;SDS011;11158;53.404;-1.510;2023-05-10T08:49:04;7.13;;;2.42;;
21987;SDS011;11158;53.404;-1.510;2023-05-10T08:51:51;4.40;;;1.30;;
21987;SDS011;11158;53.404;-1.510;2023-05-10T08:54:39;3.25;;;1.15;;
21987;SDS011;11158;53.404;-1.510;2023-05-10T08:57:24;4.45;;;1.20;;
21987;SDS011;11158;53.404;-1.510;2023-05-10T09:00:09;5.50;;;1.48;;
21987;SDS011;11158;53.404;-1.510;2023-05-10T09:02:54;5.32;;;1.20;;
21987;SDS011;11158;53.404;-1.510;2023-05-10T09:05:38;4.82;;;1.63;;
21987;SDS011;11158;53.404;-1.510;2023-05-10T09:08:23;4.25;;;1.23;;
21987;SDS011;11158;53.404;-1.510;2023-05-10T09:11:11;2.45;;;1.13;;
21987;SDS011;11158;53.404;-1.510;2023-05-10T09:13:56;5.57;;;1.20;;
21987;SDS011;11158;53.404;-1.510;2023-05-10T09:16:40;4.95;;;1.40;;
21987;SDS011;11158;53.404;-1.510;2023-05-10T09:19:25;7.00;;;1.40;;
21987;SDS011;11158;53.404;-1.510;2023-05-10T09:22:09;3.67;;;1.30;;
21987;SDS011;11158;53.404;-1.510;2023-05-10T09:25:03;2.65;;;1.00;;
21987;SDS011;11158;53.404;-1.510;2023-05-10T09:27:55;3.20;;;1.33;;
21987;SDS011;11158;53.404;-1.510;2023-05-10T09:30:39;4.68;;;1.25;;
21987;SDS011;11158;53.404;-1.510;2023-05-10T09:33:23;5.68;;;1.60;;
21987;SDS011;11158;53.404;-1.510;2023-05-10T09:36:08;3.33;;;1.40;;
21987;SDS011;11158;53.404;-1.510;2023-05-10T09:38:53;4.40;;;1.50;;
21987;SDS011;11158;53.404;-1.510;2023-05-10T09:41:37;6.13;;;1.48;;
21987;SDS011;11158;53.404;-1.510;2023-05-10T09:44:22;4.70;;;1.10;;
21987;SDS011;11158;53.404;-1.510;2023-05-10T09:47:06;4.50;;;1.20;;
21987;SDS011;11158;53.404;-1.510;2023-05-10T09:49:52;4.22;;;1.17;;
21987;SDS011;11158;53.404;-1.510;2023-05-10T09:55:43;3.53;;;1.20;;
21987;SDS011;11158;53.404;-1.510;2023-05-10T09:58:29;2.67;;;1.38;;
21987;SDS011;11158;53.404;-1.510;2023-05-10T10:01:13;3.08;;;1.10;;
21987;SDS011;11158;53.404;-1.510;2023-05-10T10:03:58;4.53;;;1.20;;
21987;SDS011;11158;53.404;-1.510;2023-05-10T10:06:42;2.47;;;1.02;;
21987;SDS011;11158;53.404;-1.510;2023-05-10T10:09:26;2.00;;;1.27;;
21987;SDS011;11158;53.404;-1.510;2023-05-10T10:12:11;4.07;;;1.70;;
21987;SDS011;11158;53.404;-1.510;2023-05-10T10:14:55;2.42;;;1.27;;
21987;SDS011;11158;53.404;-1.510;2023-05-10T10:17:40;1.90;;;1.00;;
21987;SDS011;11158;53.404;-1.510;2023-05-10T10:20:24;1.88;;;0.77;;
21987;SDS011;11158;53.404;-1.510;2023-05-10T10:23:10;3.47;;;1.17;;
21987;SDS011;11158;53.404;-1.510;2023-05-10T10:25:54;1.50;;;0.73;;
21987;SDS011;11158;53.404;-1.510;2023-05-10T10:31:34;3.20;;;1.13;;
21987;SDS011;11158;53.404;-1.510;2023-05-10T10:34:30;4.47;;;1.30;;
21987;SDS011;11158;53.404;-1.510;2023-05-10T10:37:15;2.50;;;1.40;;
21987;SDS011;11158;53.404;-1.510;2023-05-10T10:40:00;2.80;;;1.63;;
21987;SDS011;11158;53.404;-1.510;2023-05-10T10:42:44;1.73;;;1.30;;
21987;SDS011;11158;53.404;-1.510;2023-05-10T10:45:29;3.28;;;1.60;;
21987;SDS011;11158;53.404;-1.510;2023-05-10T10:48:20;2.00;;;1.23;;
21987;SDS011;11158;53.404;-1.510;2023-05-10T10:51:06;3.33;;;1.30;;
21987;SDS011;11158;53.404;-1.510;2023-05-10T10:53:51;3.42;;;1.58;;
21987;SDS011;11158;53.404;-1.510;2023-05-10T10:56:35;1.80;;;1.10;;
21987;SDS011;11158;53.404;-1.510;2023-05-10T10:59:26;8.93;;;1.23;;
21987;SDS011;11158;53.404;-1.510;2023-05-10T11:08:15;3.28;;;1.13;;
21987;SDS011;11158;53.404;-1.510;2023-05-10T11:11:13;2.55;;;1.38;;
21987;SDS011;11158;53.404;-1.510;2023-05-10T11:14:02;2.55;;;1.42;;
21987;SDS011;11158;53.404;-1.510;2023-05-10T11:16:49;3.42;;;1.50;;
21987;SDS011;11158;53.404;-1.510;2023-05-10T11:19:33;3.92;;;1.88;;
21987;SDS011;11158;53.404;-1.510;2023-05-10T11:22:18;1.77;;;1.40;;
21987;SDS011;11158;53.404;-1.510;2023-05-10T11:25:02;1.63;;;1.17;;
21987;SDS011;11158;53.404;-1.510;2023-05-10T11:27:47;1.75;;;0.88;;
21987;SDS011;11158;53.404;-1.510;2023-05-10T11:30:39;1.45;;;0.77;;
21987;SDS011;11158;53.404;-1.510;2023-05-10T11:33:25;1.75;;;0.65;;
21987;SDS011;11158;53.404;-1.510;2023-05-10T11:36:15;0.55;;;0.45;;
21987;SDS011;11158;53.404;-1.510;2023-05-10T11:39:02;0.63;;;0.55;;
21987;SDS011;11158;53.404;-1.510;2023-05-10T11:41:48;1.02;;;0.57;;
21987;SDS011;11158;53.404;-1.510;2023-05-10T11:44:33;2.17;;;0.80;;
21987;SDS011;11158;53.404;-1.510;2023-05-10T11:47:17;1.58;;;1.00;;
21987;SDS011;11158;53.404;-1.510;2023-05-10T11:50:01;2.35;;;0.93;;
21987;SDS011;11158;53.404;-1.510;2023-05-10T11:52:49;1.42;;;1.10;;
21987;SDS011;11158;53.404;-1.510;2023-05-10T11:55:35;2.00;;;0.82;;
21987;SDS011;11158;53.404;-1.510;2023-05-10T11:58:19;1.80;;;1.20;;
21987;SDS011;11158;53.404;-1.510;2023-05-10T12:01:05;1.23;;;1.13;;
21987;SDS011;11158;53.404;-1.510;2023-05-10T12:03:51;1.30;;;1.20;;
21987;SDS011;11158;53.404;-1.510;2023-05-10T12:06:40;2.08;;;1.15;;
21987;SDS011;11158;53.404;-1.510;2023-05-10T12:09:25;0.30;;;0.30;;
21987;SDS011;11158;53.404;-1.510;2023-05-10T12:12:09;4.13;;;0.43;;
21987;SDS011;11158;53.404;-1.510;2023-05-10T12:14:53;0.93;;;0.43;;
21987;SDS011;11158;53.404;-1.510;2023-05-10T12:17:38;1.25;;;0.40;;
21987;SDS011;11158;53.404;-1.510;2023-05-10T12:20:26;1.27;;;0.40;;
21987;SDS011;11158;53.404;-1.510;2023-05-10T12:23:11;1.48;;;0.50;;
21987;SDS011;11158;53.404;-1.510;2023-05-10T12:26:01;0.43;;;0.30;;
21987;SDS011;11158;53.404;-1.510;2023-05-10T12:28:47;0.88;;;0.20;;
21987;SDS011;11158;53.404;-1.510;2023-05-10T12:31:32;0.20;;;0.20;;
21987;SDS011;11158;53.404;-1.510;2023-05-10T12:34:26;0.40;;;0.30;;
21987;SDS011;11158;53.404;-1.510;2023-05-10T12:37:14;0.90;;;0.40;;
21987;SDS011;11158;53.404;-1.510;2023-05-10T12:39:58;0.60;;;0.40;;
21987;SDS011;11158;53.404;-1.510;2023-05-10T12:42:43;0.65;;;0.40;;
21987;SDS011;11158;53.404;-1.510;2023-05-10T12:45:28;0.63;;;0.38;;
21987;SDS011;11158;53.404;-1.510;2023-05-10T12:48:13;0.80;;;0.30;;
21987;SDS011;11158;53.404;-1.510;2023-05-10T12:50:57;1.58;;;0.50;;
21987;SDS011;11158;53.404;-1.510;2023-05-10T12:53:41;0.52;;;0.40;;
21987;SDS011;11158;53.404;-1.510;2023-05-10T12:56:26;0.50;;;0.50;;
21987;SDS011;11158;53.404;-1.510;2023-05-10T12:59:10;0.50;;;0.40;;
21987;SDS011;11158;53.404;-1.510;2023-05-10T13:01:54;0.40;;;0.40;;
21987;SDS011;11158;53.404;-1.510;2023-05-10T13:04:39;1.10;;;0.40;;
21987;SDS011;11158;53.404;-1.510;2023-05-10T13:07:23;0.60;;;0.60;;
21987;SDS011;11158;53.404;-1.510;2023-05-10T13:10:07;0.75;;;0.50;;
21987;SDS011;11158;53.404;-1.510;2023-05-10T13:12:51;1.27;;;0.63;;
21987;SDS011;11158;53.404;-1.510;2023-05-10T13:15:35;1.05;;;0.55;;
21987;SDS011;11158;53.404;-1.510;2023-05-10T13:18:19;0.55;;;0.55;;
21987;SDS011;11158;53.404;-1.510;2023-05-10T13:21:04;0.60;;;0.60;;
21987;SDS011;11158;53.404;-1.510;2023-05-10T13:23:49;2.63;;;0.50;;
21987;SDS011;11158;53.404;-1.510;2023-05-10T13:26:33;0.45;;;0.45;;
21987;SDS011;11158;53.404;-1.510;2023-05-10T13:29:17;2.53;;;0.50;;
21987;SDS011;11158;53.404;-1.510;2023-05-10T13:32:02;1.10;;;0.40;;
21987;SDS011;11158;53.404;-1.510;2023-05-10T13:34:46;0.50;;;0.30;;
21987;SDS011;11158;53.404;-1.510;2023-05-10T13:37:30;0.30;;;0.30;;
21987;SDS011;11158;53.404;-1.510;2023-05-10T13:40:15;3.15;;;0.40;;
21987;SDS011;11158;53.404;-1.510;2023-05-10T13:42:59;4.80;;;0.68;;
21987;SDS011;11158;53.404;-1.510;2023-05-10T13:45:43;1.27;;;0.40;;
21987;SDS011;11158;53.404;-1.510;2023-05-10T13:48:27;0.85;;;0.50;;
21987;SDS011;11158;53.404;-1.510;2023-05-10T13:51:12;0.32;;;0.32;;
21987;SDS011;11158;53.404;-1.510;2023-05-10T13:53:57;1.13;;;0.52;;
21987;SDS011;11158;53.404;-1.510;2023-05-10T13:56:42;2.33;;;0.47;;
21987;SDS011;11158;53.404;-1.510;2023-05-10T13:59:28;1.33;;;0.60;;
21987;SDS011;11158;53.404;-1.510;2023-05-10T14:02:15;0.63;;;0.38;;
21987;SDS011;11158;53.404;-1.510;2023-05-10T14:05:00;0.32;;;0.30;;
21987;SDS011;11158;53.404;-1.510;2023-05-10T14:07:44;0.47;;;0.47;;
21987;SDS011;11158;53.404;-1.510;2023-05-10T14:10:28;0.22;;;0.20;;
21987;SDS011;11158;53.404;-1.510;2023-05-10T14:13:13;2.15;;;0.30;;
21987;SDS011;11158;53.404;-1.510;2023-05-10T14:15:57;1.30;;;0.22;;
21987;SDS011;11158;53.404;-1.510;2023-05-10T14:18:44;0.28;;;0.28;;
21987;SDS011;11158;53.404;-1.510;2023-05-10T14:21:28;0.50;;;0.40;;
21987;SDS011;11158;53.404;-1.510;2023-05-10T14:24:15;0.60;;;0.50;;
21987;SDS011;11158;53.404;-1.510;2023-05-10T14:26:59;0.52;;;0.43;;
21987;SDS011;11158;53.404;-1.510;2023-05-10T14:29:43;0.85;;;0.40;;
21987;SDS011;11158;53.404;-1.510;2023-05-10T14:32:27;0.57;;;0.40;;
21987;SDS011;11158;53.404;-1.510;2023-05-10T14:35:16;0.50;;;0.40;;
21987;SDS011;11158;53.404;-1.510;2023-05-10T14:38:01;0.70;;;0.52;;
21987;SDS011;11158;53.404;-1.510;2023-05-10T14:40:46;0.80;;;0.57;;
21987;SDS011;11158;53.404;-1.510;2023-05-10T14:43:31;0.70;;;0.50;;
21987;SDS011;11158;53.404;-1.510;2023-05-10T14:46:15;0.57;;;0.57;;
21987;SDS011;11158;53.404;-1.510;2023-05-10T14:49:00;1.58;;;0.38;;
21987;SDS011;11158;53.404;-1.510;2023-05-10T14:51:43;0.82;;;0.30;;
21987;SDS011;11158;53.404;-1.510;2023-05-10T14:54:29;1.02;;;0.40;;
21987;SDS011;11158;53.404;-1.510;2023-05-10T14:57:13;0.40;;;0.25;;
21987;SDS011;11158;53.404;-1.510;2023-05-10T14:59:58;1.08;;;0.30;;
21987;SDS011;11158;53.404;-1.510;2023-05-10T15:02:42;0.68;;;0.30;;
21987;SDS011;11158;53.404;-1.510;2023-05-10T15:05:26;0.73;;;0.20;;
21987;SDS011;11158;53.404;-1.510;2023-05-10T15:08:10;0.70;;;0.22;;
21987;SDS011;11158;53.404;-1.510;2023-05-10T15:10:56;0.40;;;0.22;;
21987;SDS011;11158;53.404;-1.510;2023-05-10T15:13:40;0.20;;;0.20;;
21987;SDS011;11158;53.404;-1.510;2023-05-10T15:16:24;0.38;;;0.20;;
21987;SDS011;11158;53.404;-1.510;2023-05-10T15:19:08;0.35;;;0.10;;
21987;SDS011;11158;53.404;-1.510;2023-05-10T15:21:52;0.15;;;0.10;;
21987;SDS011;11158;53.404;-1.510;2023-05-10T15:24:36;0.52;;;0.30;;
21987;SDS011;11158;53.404;-1.510;2023-05-10T15:27:20;2.90;;;0.38;;
21987;SDS011;11158;53.404;-1.510;2023-05-10T15:30:04;3.95;;;0.40;;
21987;SDS011;11158;53.404;-1.510;2023-05-10T15:32:50;1.77;;;0.30;;
21987;SDS011;11158;53.404;-1.510;2023-05-10T15:35:35;0.30;;;0.30;;
21987;SDS011;11158;53.404;-1.510;2023-05-10T15:38:22;1.08;;;0.50;;
21987;SDS011;11158;53.404;-1.510;2023-05-10T15:41:06;1.08;;;0.30;;
21987;SDS011;11158;53.404;-1.510;2023-05-10T15:43:51;1.65;;;0.60;;
21987;SDS011;11158;53.404;-1.510;2023-05-10T15:46:35;0.30;;;0.30;;
21987;SDS011;11158;53.404;-1.510;2023-05-10T15:49:21;0.95;;;0.50;;
21987;SDS011;11158;53.404;-1.510;2023-05-10T15:52:05;1.23;;;0.30;;
21987;SDS011;11158;53.404;-1.510;2023-05-10T15:54:49;1.17;;;0.40;;
21987;SDS011;11158;53.404;-1.510;2023-05-10T15:57:34;1.60;;;0.43;;
21987;SDS011;11158;53.404;-1.510;2023-05-10T16:00:18;0.88;;;0.30;;
21987;SDS011;11158;53.404;-1.510;2023-05-10T16:03:03;0.35;;;0.28;;
21987;SDS011;11158;53.404;-1.510;2023-05-10T16:05:47;0.40;;;0.40;;
21987;SDS011;11158;53.404;-1.510;2023-05-10T16:08:31;0.65;;;0.35;;
21987;SDS011;11158;53.404;-1.510;2023-05-10T16:11:16;1.70;;;0.40;;
21987;SDS011;11158;53.404;-1.510;2023-05-10T16:14:00;0.60;;;0.20;;
21987;SDS011;11158;53.404;-1.510;2023-05-10T16:16:44;1.30;;;0.13;;
21987;SDS011;11158;53.404;-1.510;2023-05-10T16:19:28;1.17;;;0.35;;
21987;SDS011;11158;53.404;-1.510;2023-05-10T16:22:12;0.50;;;0.22;;
21987;SDS011;11158;53.404;-1.510;2023-05-10T16:24:58;0.80;;;0.40;;
21987;SDS011;11158;53.404;-1.510;2023-05-10T16:27:42;1.52;;;0.40;;
21987;SDS011;11158;53.404;-1.510;2023-05-10T16:30:27;1.60;;;0.35;;
21987;SDS011;11158;53.404;-1.510;2023-05-10T16:33:13;0.52;;;0.30;;
21987;SDS011;11158;53.404;-1.510;2023-05-10T16:35:57;0.68;;;0.32;;
21987;SDS011;11158;53.404;-1.510;2023-05-10T16:38:42;0.68;;;0.40;;
21987;SDS011;11158;53.404;-1.510;2023-05-10T16:41:26;0.70;;;0.32;;
21987;SDS011;11158;53.404;-1.510;2023-05-10T16:44:10;2.05;;;0.43;;
21987;SDS011;11158;53.404;-1.510;2023-05-10T16:46:54;1.05;;;0.40;;
21987;SDS011;11158;53.404;-1.510;2023-05-10T16:49:38;0.77;;;0.47;;
21987;SDS011;11158;53.404;-1.510;2023-05-10T16:52:22;1.17;;;0.32;;
21987;SDS011;11158;53.404;-1.510;2023-05-10T16:55:06;1.67;;;0.40;;
21987;SDS011;11158;53.404;-1.510;2023-05-10T16:57:51;1.23;;;0.45;;
21987;SDS011;11158;53.404;-1.510;2023-05-10T17:00:35;0.50;;;0.28;;